sensor_id;sensor_type;location;lat;lon;timestamp;temperature;humidity
56332;DHT22;42237;53.340;6.812;2022-11-30T00:00:05;7.10;99.90
56332;DHT22;42237;53.340;6.812;2022-11-30T00:02:31;7.00;99.90
56332;DHT22;42237;53.340;6.812;2022-11-30T00:04:56;7.00;99.90
56332;DHT22;42237;53.340;6.812;2022-11-30T00:07:22;7.00;99.90
56332;DHT22;42237;53.340;6.812;2022-11-30T00:09:47;7.00;99.90
56332;DHT22;42237;53.340;6.812;2022-11-30T00:12:13;7.00;99.90
56332;DHT22;42237;53.340;6.812;2022-11-30T00:14:39;6.90;99.90
56332;DHT22;42237;53.340;6.812;2022-11-30T00:17:04;7.50;99.90
56332;DHT22;42237;53.340;6.812;2022-11-30T00:19:30;7.00;99.90
56332;DHT22;42237;53.340;6.812;2022-11-30T00:21:56;7.00;99.90
56332;DHT22;42237;53.340;6.812;2022-11-30T00:24:21;7.00;99.90
56332;DHT22;42237;53.340;6.812;2022-11-30T00:26:47;7.00;99.90
56332;DHT22;42237;53.340;6.812;2022-11-30T00:29:13;7.00;99.90
56332;DHT22;42237;53.340;6.812;2022-11-30T00:31:38;7.00;99.90
56332;DHT22;42237;53.340;6.812;2022-11-30T00:34:04;7.00;99.90
56332;DHT22;42237;53.340;6.812;2022-11-30T00:36:29;7.00;99.90
56332;DHT22;42237;53.340;6.812;2022-11-30T00:38:55;6.90;99.90
56332;DHT22;42237;53.340;6.812;2022-11-30T00:41:21;6.90;99.90
56332;DHT22;42237;53.340;6.812;2022-11-30T00:43:47;7.00;99.90
56332;DHT22;42237;53.340;6.812;2022-11-30T00:46:13;7.00;99.90
56332;DHT22;42237;53.340;6.812;2022-11-30T00:48:40;7.00;99.90
56332;DHT22;42237;53.340;6.812;2022-11-30T00:51:06;7.10;99.90
56332;DHT22;42237;53.340;6.812;2022-11-30T00:53:33;7.40;99.90
56332;DHT22;42237;53.340;6.812;2022-11-30T00:55:58;6.90;99.90
56332;DHT22;42237;53.340;6.812;2022-11-30T00:58:24;6.90;99.90
56332;DHT22;42237;53.340;6.812;2022-11-30T01:00:50;6.90;99.90
56332;DHT22;42237;53.340;6.812;2022-11-30T01:03:16;7.60;99.90
56332;DHT22;42237;53.340;6.812;2022-11-30T01:05:42;6.40;99.90
56332;DHT22;42237;53.340;6.812;2022-11-30T01:08:09;6.90;99.90
56332;DHT22;42237;53.340;6.812;2022-11-30T01:10:37;6.90;99.90
56332;DHT22;42237;53.340;6.812;2022-11-30T01:13:03;6.90;99.90
56332;DHT22;42237;53.340;6.812;2022-11-30T01:15:30;6.90;99.90
56332;DHT22;42237;53.340;6.812;2022-11-30T01:17:58;6.90;99.90
56332;DHT22;42237;53.340;6.812;2022-11-30T01:20:24;6.90;99.90
56332;DHT22;42237;53.340;6.812;2022-11-30T01:22:50;6.90;99.90
56332;DHT22;42237;53.340;6.812;2022-11-30T01:25:15;6.90;99.90
56332;DHT22;42237;53.340;6.812;2022-11-30T01:27:41;6.90;99.90
56332;DHT22;42237;53.340;6.812;2022-11-30T01:30:07;6.90;99.90
56332;DHT22;42237;53.340;6.812;2022-11-30T01:32:33;6.80;99.90
56332;DHT22;42237;53.340;6.812;2022-11-30T01:34:58;7.00;99.90
56332;DHT22;42237;53.340;6.812;2022-11-30T01:37:24;6.80;99.90
56332;DHT22;42237;53.340;6.812;2022-11-30T01:39:50;6.80;99.90
56332;DHT22;42237;53.340;6.812;2022-11-30T01:42:17;6.90;99.90
56332;DHT22;42237;53.340;6.812;2022-11-30T01:47:41;6.90;99.90
56332;DHT22;42237;53.340;6.812;2022-11-30T01:50:12;6.90;99.90
56332;DHT22;42237;53.340;6.812;2022-11-30T01:52:51;6.90;99.90
56332;DHT22;42237;53.340;6.812;2022-11-30T01:55:18;6.90;99.90
56332;DHT22;42237;53.340;6.812;2022-11-30T01:57:48;7.10;99.90
56332;DHT22;42237;53.340;6.812;2022-11-30T02:00:16;6.90;99.90
56332;DHT22;42237;53.340;6.812;2022-11-30T02:05:26;6.90;99.90
56332;DHT22;42237;53.340;6.812;2022-11-30T02:07:52;6.90;99.90
56332;DHT22;42237;53.340;6.812;2022-11-30T02:10:29;6.90;99.90
56332;DHT22;42237;53.340;6.812;2022-11-30T02:15:49;6.90;99.90
56332;DHT22;42237;53.340;6.812;2022-11-30T02:18:37;6.90;99.90
56332;DHT22;42237;53.340;6.812;2022-11-30T02:21:17;6.90;99.90
56332;DHT22;42237;53.340;6.812;2022-11-30T02:29:35;6.90;99.90
56332;DHT22;42237;53.340;6.812;2022-11-30T02:32:09;6.90;99.90
56332;DHT22;42237;53.340;6.812;2022-11-30T02:34:37;6.90;99.90
56332;DHT22;42237;53.340;6.812;2022-11-30T02:37:08;6.90;99.90
56332;DHT22;42237;53.340;6.812;2022-11-30T02:39:36;6.90;99.90
56332;DHT22;42237;53.340;6.812;2022-11-30T02:42:02;6.90;99.90
56332;DHT22;42237;53.340;6.812;2022-11-30T02:44:28;6.90;99.90
56332;DHT22;42237;53.340;6.812;2022-11-30T02:47:08;6.90;99.90
56332;DHT22;42237;53.340;6.812;2022-11-30T02:49:48;6.90;99.90
56332;DHT22;42237;53.340;6.812;2022-11-30T02:52:14;6.90;99.90
56332;DHT22;42237;53.340;6.812;2022-11-30T02:54:40;6.90;99.90
56332;DHT22;42237;53.340;6.812;2022-11-30T02:57:06;7.10;99.90
56332;DHT22;42237;53.340;6.812;2022-11-30T02:59:32;6.90;99.90
56332;DHT22;42237;53.340;6.812;2022-11-30T03:01:58;6.90;99.90
56332;DHT22;42237;53.340;6.812;2022-11-30T03:04:23;7.00;99.90
56332;DHT22;42237;53.340;6.812;2022-11-30T03:06:49;6.90;99.90
56332;DHT22;42237;53.340;6.812;2022-11-30T03:09:15;6.90;99.90
56332;DHT22;42237;53.340;6.812;2022-11-30T03:11:40;6.80;99.90
56332;DHT22;42237;53.340;6.812;2022-11-30T03:14:06;6.90;99.90
56332;DHT22;42237;53.340;6.812;2022-11-30T03:16:31;7.00;99.90
56332;DHT22;42237;53.340;6.812;2022-11-30T03:18:58;6.90;99.90
56332;DHT22;42237;53.340;6.812;2022-11-30T03:21:24;6.90;99.90
56332;DHT22;42237;53.340;6.812;2022-11-30T03:23:50;6.90;99.90
56332;DHT22;42237;53.340;6.812;2022-11-30T03:26:16;7.40;99.90
56332;DHT22;42237;53.340;6.812;2022-11-30T03:28:42;6.90;99.90
56332;DHT22;42237;53.340;6.812;2022-11-30T03:31:10;6.90;99.90
56332;DHT22;42237;53.340;6.812;2022-11-30T03:33:36;6.90;99.90
56332;DHT22;42237;53.340;6.812;2022-11-30T03:36:04;7.10;99.90
56332;DHT22;42237;53.340;6.812;2022-11-30T03:38:31;6.90;99.90
56332;DHT22;42237;53.340;6.812;2022-11-30T03:41:01;6.90;99.90
56332;DHT22;42237;53.340;6.812;2022-11-30T03:43:27;6.80;99.90
56332;DHT22;42237;53.340;6.812;2022-11-30T03:45:53;7.00;99.90
56332;DHT22;42237;53.340;6.812;2022-11-30T03:48:18;6.80;99.90
56332;DHT22;42237;53.340;6.812;2022-11-30T03:50:44;6.80;99.90
56332;DHT22;42237;53.340;6.812;2022-11-30T03:53:23;6.80;99.90
56332;DHT22;42237;53.340;6.812;2022-11-30T03:55:54;6.90;99.90
56332;DHT22;42237;53.340;6.812;2022-11-30T03:58:21;6.90;99.90
56332;DHT22;42237;53.340;6.812;2022-11-30T04:00:48;6.80;99.90
56332;DHT22;42237;53.340;6.812;2022-11-30T04:03:13;6.80;99.90
56332;DHT22;42237;53.340;6.812;2022-11-30T04:05:39;6.80;99.90
56332;DHT22;42237;53.340;6.812;2022-11-30T04:08:05;6.90;99.90
56332;DHT22;42237;53.340;6.812;2022-11-30T04:10:31;6.80;99.90
56332;DHT22;42237;53.340;6.812;2022-11-30T04:12:57;6.80;99.90
56332;DHT22;42237;53.340;6.812;2022-11-30T04:15:22;6.80;99.90
56332;DHT22;42237;53.340;6.812;2022-11-30T04:17:48;7.00;99.90
56332;DHT22;42237;53.340;6.812;2022-11-30T04:20:14;6.80;99.90
56332;DHT22;42237;53.340;6.812;2022-11-30T04:22:39;6.80;99.90
56332;DHT22;42237;53.340;6.812;2022-11-30T04:25:05;6.80;99.90
56332;DHT22;42237;53.340;6.812;2022-11-30T04:27:31;6.80;99.90
56332;DHT22;42237;53.340;6.812;2022-11-30T04:29:57;6.80;99.90
56332;DHT22;42237;53.340;6.812;2022-11-30T04:32:22;6.80;99.90
56332;DHT22;42237;53.340;6.812;2022-11-30T04:34:48;6.80;99.90
56332;DHT22;42237;53.340;6.812;2022-11-30T04:37:14;6.80;99.90
56332;DHT22;42237;53.340;6.812;2022-11-30T04:39:39;7.10;99.90
56332;DHT22;42237;53.340;6.812;2022-11-30T04:42:05;6.70;99.90
56332;DHT22;42237;53.340;6.812;2022-11-30T04:44:31;6.70;99.90
56332;DHT22;42237;53.340;6.812;2022-11-30T04:46:56;6.70;99.90
56332;DHT22;42237;53.340;6.812;2022-11-30T04:49:22;6.70;99.90
56332;DHT22;42237;53.340;6.812;2022-11-30T04:51:48;6.90;99.90
56332;DHT22;42237;53.340;6.812;2022-11-30T04:54:13;6.80;99.90
56332;DHT22;42237;53.340;6.812;2022-11-30T04:56:39;6.70;99.90
56332;DHT22;42237;53.340;6.812;2022-11-30T04:59:05;6.70;99.90
56332;DHT22;42237;53.340;6.812;2022-11-30T05:01:30;6.70;99.90
56332;DHT22;42237;53.340;6.812;2022-11-30T05:03:56;7.10;99.90
56332;DHT22;42237;53.340;6.812;2022-11-30T05:06:25;6.70;99.90
56332;DHT22;42237;53.340;6.812;2022-11-30T05:08:51;6.70;99.90
56332;DHT22;42237;53.340;6.812;2022-11-30T05:11:16;6.70;99.90
56332;DHT22;42237;53.340;6.812;2022-11-30T05:13:42;6.70;99.90
56332;DHT22;42237;53.340;6.812;2022-11-30T05:16:08;7.00;99.90
56332;DHT22;42237;53.340;6.812;2022-11-30T05:18:35;6.70;99.90
56332;DHT22;42237;53.340;6.812;2022-11-30T05:21:01;6.70;99.90
56332;DHT22;42237;53.340;6.812;2022-11-30T05:23:27;6.60;99.90
56332;DHT22;42237;53.340;6.812;2022-11-30T05:25:53;6.60;99.90
56332;DHT22;42237;53.340;6.812;2022-11-30T05:28:19;6.70;99.90
56332;DHT22;42237;53.340;6.812;2022-11-30T05:30:44;6.60;99.90
56332;DHT22;42237;53.340;6.812;2022-11-30T05:33:11;6.60;99.90
56332;DHT22;42237;53.340;6.812;2022-11-30T05:35:37;6.80;99.90
56332;DHT22;42237;53.340;6.812;2022-11-30T05:38:03;6.60;99.90
56332;DHT22;42237;53.340;6.812;2022-11-30T05:40:29;6.60;99.90
56332;DHT22;42237;53.340;6.812;2022-11-30T05:42:58;6.60;99.90
56332;DHT22;42237;53.340;6.812;2022-11-30T05:45:24;6.60;99.90
56332;DHT22;42237;53.340;6.812;2022-11-30T05:47:49;6.90;99.90
56332;DHT22;42237;53.340;6.812;2022-11-30T05:50:15;6.60;99.90
56332;DHT22;42237;53.340;6.812;2022-11-30T05:52:41;6.60;99.90
56332;DHT22;42237;53.340;6.812;2022-11-30T05:55:07;6.60;99.90
56332;DHT22;42237;53.340;6.812;2022-11-30T05:57:38;6.60;99.90
56332;DHT22;42237;53.340;6.812;2022-11-30T06:00:06;6.60;99.90
56332;DHT22;42237;53.340;6.812;2022-11-30T06:02:33;6.60;99.90
56332;DHT22;42237;53.340;6.812;2022-11-30T06:04:59;6.50;99.90
56332;DHT22;42237;53.340;6.812;2022-11-30T06:07:25;6.60;99.90
56332;DHT22;42237;53.340;6.812;2022-11-30T06:09:50;6.10;99.90
56332;DHT22;42237;53.340;6.812;2022-11-30T06:12:16;6.80;99.90
56332;DHT22;42237;53.340;6.812;2022-11-30T06:14:42;6.50;99.90
56332;DHT22;42237;53.340;6.812;2022-11-30T06:17:08;6.50;99.90
56332;DHT22;42237;53.340;6.812;2022-11-30T06:19:33;6.50;99.90
56332;DHT22;42237;53.340;6.812;2022-11-30T06:21:59;6.70;99.90
56332;DHT22;42237;53.340;6.812;2022-11-30T06:24:25;6.50;99.90
56332;DHT22;42237;53.340;6.812;2022-11-30T06:26:50;6.50;99.90
56332;DHT22;42237;53.340;6.812;2022-11-30T06:29:16;6.60;99.90
56332;DHT22;42237;53.340;6.812;2022-11-30T06:31:42;6.50;99.90
56332;DHT22;42237;53.340;6.812;2022-11-30T06:34:07;6.50;99.90
56332;DHT22;42237;53.340;6.812;2022-11-30T06:36:33;6.90;99.90
56332;DHT22;42237;53.340;6.812;2022-11-30T06:38:59;6.50;99.90
56332;DHT22;42237;53.340;6.812;2022-11-30T06:41:24;6.50;99.90
56332;DHT22;42237;53.340;6.812;2022-11-30T06:43:50;6.70;99.90
56332;DHT22;42237;53.340;6.812;2022-11-30T06:46:16;6.50;99.90
56332;DHT22;42237;53.340;6.812;2022-11-30T06:48:42;6.60;99.90
56332;DHT22;42237;53.340;6.812;2022-11-30T06:51:08;6.60;99.90
56332;DHT22;42237;53.340;6.812;2022-11-30T06:53:35;6.50;99.90
56332;DHT22;42237;53.340;6.812;2022-11-30T06:56:07;6.50;99.90
56332;DHT22;42237;53.340;6.812;2022-11-30T06:58:33;6.50;99.90
56332;DHT22;42237;53.340;6.812;2022-11-30T07:00:59;6.40;99.90
56332;DHT22;42237;53.340;6.812;2022-11-30T07:03:25;6.00;99.90
56332;DHT22;42237;53.340;6.812;2022-11-30T07:05:51;6.40;99.90
56332;DHT22;42237;53.340;6.812;2022-11-30T07:08:17;6.40;99.90
56332;DHT22;42237;53.340;6.812;2022-11-30T07:10:44;6.90;99.90
56332;DHT22;42237;53.340;6.812;2022-11-30T07:13:15;6.40;99.90
56332;DHT22;42237;53.340;6.812;2022-11-30T07:15:42;6.40;99.90
56332;DHT22;42237;53.340;6.812;2022-11-30T07:18:09;6.50;99.90
56332;DHT22;42237;53.340;6.812;2022-11-30T07:20:35;6.60;99.90
56332;DHT22;42237;53.340;6.812;2022-11-30T07:23:02;6.40;99.90
56332;DHT22;42237;53.340;6.812;2022-11-30T07:25:46;6.40;99.90
56332;DHT22;42237;53.340;6.812;2022-11-30T07:28:34;6.40;99.90
56332;DHT22;42237;53.340;6.812;2022-11-30T07:31:01;6.40;99.90
56332;DHT22;42237;53.340;6.812;2022-11-30T07:33:27;6.40;99.90
56332;DHT22;42237;53.340;6.812;2022-11-30T07:35:55;6.70;99.90
56332;DHT22;42237;53.340;6.812;2022-11-30T07:38:20;6.40;99.90
56332;DHT22;42237;53.340;6.812;2022-11-30T07:40:46;6.40;99.90
56332;DHT22;42237;53.340;6.812;2022-11-30T07:43:13;6.40;99.90
56332;DHT22;42237;53.340;6.812;2022-11-30T07:45:39;6.40;99.90
56332;DHT22;42237;53.340;6.812;2022-11-30T07:48:05;6.40;99.90
56332;DHT22;42237;53.340;6.812;2022-11-30T07:50:31;6.50;99.90
56332;DHT22;42237;53.340;6.812;2022-11-30T07:52:57;6.40;99.90
56332;DHT22;42237;53.340;6.812;2022-11-30T07:55:23;6.50;99.90
56332;DHT22;42237;53.340;6.812;2022-11-30T07:57:48;6.50;99.90
56332;DHT22;42237;53.340;6.812;2022-11-30T08:00:15;6.80;99.90
56332;DHT22;42237;53.340;6.812;2022-11-30T08:02:40;6.50;99.90
56332;DHT22;42237;53.340;6.812;2022-11-30T08:05:06;6.90;99.90
56332;DHT22;42237;53.340;6.812;2022-11-30T08:07:35;6.50;99.90
56332;DHT22;42237;53.340;6.812;2022-11-30T08:10:01;6.50;99.90
56332;DHT22;42237;53.340;6.812;2022-11-30T08:12:26;6.50;99.90
56332;DHT22;42237;53.340;6.812;2022-11-30T08:14:55;6.50;99.90
56332;DHT22;42237;53.340;6.812;2022-11-30T08:17:21;6.50;99.90
56332;DHT22;42237;53.340;6.812;2022-11-30T08:19:47;6.60;99.90
56332;DHT22;42237;53.340;6.812;2022-11-30T08:22:12;6.60;99.90
56332;DHT22;42237;53.340;6.812;2022-11-30T08:24:38;6.60;99.90
56332;DHT22;42237;53.340;6.812;2022-11-30T08:27:03;6.70;99.90
56332;DHT22;42237;53.340;6.812;2022-11-30T08:29:29;6.70;99.90
56332;DHT22;42237;53.340;6.812;2022-11-30T08:31:55;7.10;99.90
56332;DHT22;42237;53.340;6.812;2022-11-30T08:34:23;6.70;99.90
56332;DHT22;42237;53.340;6.812;2022-11-30T08:36:51;6.80;99.90
56332;DHT22;42237;53.340;6.812;2022-11-30T08:39:17;6.70;99.90
56332;DHT22;42237;53.340;6.812;2022-11-30T08:41:47;6.70;99.90
56332;DHT22;42237;53.340;6.812;2022-11-30T08:44:13;6.70;99.90
56332;DHT22;42237;53.340;6.812;2022-11-30T08:46:39;6.70;99.90
56332;DHT22;42237;53.340;6.812;2022-11-30T08:49:04;6.70;99.90
56332;DHT22;42237;53.340;6.812;2022-11-30T08:51:30;6.80;99.90
56332;DHT22;42237;53.340;6.812;2022-11-30T08:53:56;7.50;99.90
56332;DHT22;42237;53.340;6.812;2022-11-30T08:56:22;7.10;99.90
56332;DHT22;42237;53.340;6.812;2022-11-30T08:58:48;7.00;99.90
56332;DHT22;42237;53.340;6.812;2022-11-30T09:01:18;6.80;99.90
56332;DHT22;42237;53.340;6.812;2022-11-30T09:03:46;6.80;99.90
56332;DHT22;42237;53.340;6.812;2022-11-30T09:06:18;6.80;99.90
56332;DHT22;42237;53.340;6.812;2022-11-30T09:08:46;6.90;99.90
56332;DHT22;42237;53.340;6.812;2022-11-30T09:11:23;6.90;99.90
56332;DHT22;42237;53.340;6.812;2022-11-30T09:13:52;6.90;99.90
56332;DHT22;42237;53.340;6.812;2022-11-30T09:16:18;7.10;99.90
56332;DHT22;42237;53.340;6.812;2022-11-30T09:18:46;7.00;99.90
56332;DHT22;42237;53.340;6.812;2022-11-30T09:21:14;7.50;99.90
56332;DHT22;42237;53.340;6.812;2022-11-30T09:23:40;7.00;99.90
56332;DHT22;42237;53.340;6.812;2022-11-30T09:26:09;7.00;99.90
56332;DHT22;42237;53.340;6.812;2022-11-30T09:28:36;7.30;99.90
56332;DHT22;42237;53.340;6.812;2022-11-30T09:31:07;7.00;99.90
56332;DHT22;42237;53.340;6.812;2022-11-30T09:33:35;7.10;99.90
56332;DHT22;42237;53.340;6.812;2022-11-30T09:36:06;7.10;99.90
56332;DHT22;42237;53.340;6.812;2022-11-30T09:38:33;7.10;99.90
56332;DHT22;42237;53.340;6.812;2022-11-30T09:41:01;7.10;99.90
56332;DHT22;42237;53.340;6.812;2022-11-30T09:47:17;7.10;99.90
56332;DHT22;42237;53.340;6.812;2022-11-30T09:49:45;7.10;99.90
56332;DHT22;42237;53.340;6.812;2022-11-30T09:52:36;7.20;99.90
56332;DHT22;42237;53.340;6.812;2022-11-30T09:55:12;7.10;99.90
56332;DHT22;42237;53.340;6.812;2022-11-30T09:57:44;7.10;99.90
56332;DHT22;42237;53.340;6.812;2022-11-30T10:00:16;7.00;99.90
56332;DHT22;42237;53.340;6.812;2022-11-30T10:02:43;7.00;99.90
56332;DHT22;42237;53.340;6.812;2022-11-30T10:05:15;7.10;99.90
56332;DHT22;42237;53.340;6.812;2022-11-30T10:19:18;7.20;99.90
56332;DHT22;42237;53.340;6.812;2022-11-30T10:24:51;7.30;99.90
56332;DHT22;42237;53.340;6.812;2022-11-30T10:27:49;7.40;99.90
56332;DHT22;42237;53.340;6.812;2022-11-30T10:30:24;7.40;99.90
56332;DHT22;42237;53.340;6.812;2022-11-30T10:32:56;7.40;99.90
56332;DHT22;42237;53.340;6.812;2022-11-30T10:38:40;7.40;99.90
56332;DHT22;42237;53.340;6.812;2022-11-30T10:41:16;7.40;99.90
56332;DHT22;42237;53.340;6.812;2022-11-30T10:46:35;7.50;99.90
56332;DHT22;42237;53.340;6.812;2022-11-30T10:49:09;7.50;99.90
56332;DHT22;42237;53.340;6.812;2022-11-30T10:51:38;7.60;99.90
56332;DHT22;42237;53.340;6.812;2022-11-30T10:54:17;7.60;99.90
56332;DHT22;42237;53.340;6.812;2022-11-30T10:56:44;7.60;99.90
56332;DHT22;42237;53.340;6.812;2022-11-30T11:01:45;7.50;99.90
56332;DHT22;42237;53.340;6.812;2022-11-30T11:04:21;7.50;99.90
56332;DHT22;42237;53.340;6.812;2022-11-30T11:09:49;7.50;99.90
56332;DHT22;42237;53.340;6.812;2022-11-30T11:12:20;7.50;99.90
56332;DHT22;42237;53.340;6.812;2022-11-30T11:15:07;7.50;99.90
56332;DHT22;42237;53.340;6.812;2022-11-30T11:17:34;7.50;99.90
56332;DHT22;42237;53.340;6.812;2022-11-30T11:19:59;7.50;99.90
56332;DHT22;42237;53.340;6.812;2022-11-30T11:22:28;7.50;99.90
56332;DHT22;42237;53.340;6.812;2022-11-30T11:25:21;7.50;99.90
56332;DHT22;42237;53.340;6.812;2022-11-30T11:27:52;7.50;99.90
56332;DHT22;42237;53.340;6.812;2022-11-30T11:35:39;7.50;99.90
56332;DHT22;42237;53.340;6.812;2022-11-30T11:41:03;7.40;99.90
56332;DHT22;42237;53.340;6.812;2022-11-30T11:43:31;7.40;99.90
56332;DHT22;42237;53.340;6.812;2022-11-30T11:46:08;7.50;99.90
56332;DHT22;42237;53.340;6.812;2022-11-30T11:48:39;7.40;99.90
56332;DHT22;42237;53.340;6.812;2022-11-30T11:51:08;7.50;99.90
56332;DHT22;42237;53.340;6.812;2022-11-30T11:56:31;7.60;99.90
56332;DHT22;42237;53.340;6.812;2022-11-30T12:06:59;7.30;99.90
56332;DHT22;42237;53.340;6.812;2022-11-30T12:09:32;7.50;99.90
56332;DHT22;42237;53.340;6.812;2022-11-30T12:12:00;7.50;99.90
56332;DHT22;42237;53.340;6.812;2022-11-30T12:14:33;7.50;99.90
56332;DHT22;42237;53.340;6.812;2022-11-30T12:18:05;7.50;99.90
56332;DHT22;42237;53.340;6.812;2022-11-30T12:20:26;7.50;99.90
56332;DHT22;42237;53.340;6.812;2022-11-30T12:23:03;7.50;99.90
56332;DHT22;42237;53.340;6.812;2022-11-30T12:25:36;7.50;99.90
56332;DHT22;42237;53.340;6.812;2022-11-30T12:28:12;7.50;99.90
56332;DHT22;42237;53.340;6.812;2022-11-30T12:34:06;7.60;99.90
56332;DHT22;42237;53.340;6.812;2022-11-30T12:36:43;7.50;99.90
56332;DHT22;42237;53.340;6.812;2022-11-30T12:41:50;7.50;99.90
56332;DHT22;42237;53.340;6.812;2022-11-30T12:58:24;7.40;99.90
56332;DHT22;42237;53.340;6.812;2022-11-30T13:07:02;7.40;99.90
56332;DHT22;42237;53.340;6.812;2022-11-30T13:09:33;7.40;99.90
56332;DHT22;42237;53.340;6.812;2022-11-30T13:12:23;7.40;99.90
56332;DHT22;42237;53.340;6.812;2022-11-30T13:14:57;7.40;99.90
56332;DHT22;42237;53.340;6.812;2022-11-30T13:17:24;7.50;99.90
56332;DHT22;42237;53.340;6.812;2022-11-30T13:22:44;7.40;99.90
56332;DHT22;42237;53.340;6.812;2022-11-30T13:30:56;7.40;99.90
56332;DHT22;42237;53.340;6.812;2022-11-30T13:33:48;7.40;99.90
56332;DHT22;42237;53.340;6.812;2022-11-30T13:36:23;7.40;99.90
56332;DHT22;42237;53.340;6.812;2022-11-30T13:41:40;7.40;99.90
56332;DHT22;42237;53.340;6.812;2022-11-30T13:44:32;7.30;99.90
56332;DHT22;42237;53.340;6.812;2022-11-30T13:47:03;7.30;99.90
56332;DHT22;42237;53.340;6.812;2022-11-30T13:49:34;7.30;99.90
56332;DHT22;42237;53.340;6.812;2022-11-30T13:52:01;7.30;99.90
56332;DHT22;42237;53.340;6.812;2022-11-30T13:54:45;7.60;99.90
56332;DHT22;42237;53.340;6.812;2022-11-30T14:03:25;7.40;99.90
56332;DHT22;42237;53.340;6.812;2022-11-30T14:05:55;7.30;99.90
56332;DHT22;42237;53.340;6.812;2022-11-30T14:10:51;7.20;99.90
56332;DHT22;42237;53.340;6.812;2022-11-30T14:20:59;7.10;99.90
56332;DHT22;42237;53.340;6.812;2022-11-30T14:26:08;7.20;99.90
56332;DHT22;42237;53.340;6.812;2022-11-30T14:31:33;7.10;99.90
56332;DHT22;42237;53.340;6.812;2022-11-30T14:34:22;7.10;99.90
56332;DHT22;42237;53.340;6.812;2022-11-30T14:36:57;7.10;99.90
56332;DHT22;42237;53.340;6.812;2022-11-30T14:39:33;7.10;99.90
56332;DHT22;42237;53.340;6.812;2022-11-30T14:42:01;7.00;99.90
56332;DHT22;42237;53.340;6.812;2022-11-30T14:44:27;7.00;99.90
56332;DHT22;42237;53.340;6.812;2022-11-30T14:49:47;7.00;99.90
56332;DHT22;42237;53.340;6.812;2022-11-30T14:57:58;6.90;99.90
56332;DHT22;42237;53.340;6.812;2022-11-30T15:00:37;6.90;99.90
56332;DHT22;42237;53.340;6.812;2022-11-30T15:03:05;6.90;99.90
56332;DHT22;42237;53.340;6.812;2022-11-30T15:05:41;6.90;99.90
56332;DHT22;42237;53.340;6.812;2022-11-30T15:08:11;6.90;99.90
56332;DHT22;42237;53.340;6.812;2022-11-30T15:10:38;6.90;99.90
56332;DHT22;42237;53.340;6.812;2022-11-30T15:13:04;6.80;99.90
56332;DHT22;42237;53.340;6.812;2022-11-30T15:15:30;6.80;99.90
56332;DHT22;42237;53.340;6.812;2022-11-30T15:17:56;6.80;99.90
56332;DHT22;42237;53.340;6.812;2022-11-30T15:22:55;6.80;99.90
56332;DHT22;42237;53.340;6.812;2022-11-30T15:25:24;6.80;99.90
56332;DHT22;42237;53.340;6.812;2022-11-30T15:27:52;6.80;99.90
56332;DHT22;42237;53.340;6.812;2022-11-30T15:30:18;7.20;99.90
56332;DHT22;42237;53.340;6.812;2022-11-30T15:32:45;6.80;99.90
56332;DHT22;42237;53.340;6.812;2022-11-30T15:35:19;6.80;99.90
56332;DHT22;42237;53.340;6.812;2022-11-30T15:37:46;6.80;99.90
56332;DHT22;42237;53.340;6.812;2022-11-30T15:40:14;6.80;99.90
56332;DHT22;42237;53.340;6.812;2022-11-30T15:42:40;6.80;99.90
56332;DHT22;42237;53.340;6.812;2022-11-30T15:45:27;6.90;99.90
56332;DHT22;42237;53.340;6.812;2022-11-30T15:47:54;6.80;99.90
56332;DHT22;42237;53.340;6.812;2022-11-30T15:53:01;6.70;99.90
56332;DHT22;42237;53.340;6.812;2022-11-30T15:55:48;6.70;99.90
56332;DHT22;42237;53.340;6.812;2022-11-30T15:58:36;6.80;99.90
56332;DHT22;42237;53.340;6.812;2022-11-30T16:01:10;6.30;99.90
56332;DHT22;42237;53.340;6.812;2022-11-30T16:06:44;6.90;99.90
56332;DHT22;42237;53.340;6.812;2022-11-30T16:09:19;6.60;99.90
56332;DHT22;42237;53.340;6.812;2022-11-30T16:11:51;6.70;99.90
56332;DHT22;42237;53.340;6.812;2022-11-30T16:14:18;6.90;99.90
56332;DHT22;42237;53.340;6.812;2022-11-30T16:16:44;7.10;99.90
56332;DHT22;42237;53.340;6.812;2022-11-30T16:19:10;6.70;99.90
56332;DHT22;42237;53.340;6.812;2022-11-30T16:21:36;6.70;99.90
56332;DHT22;42237;53.340;6.812;2022-11-30T16:24:02;6.70;99.90
56332;DHT22;42237;53.340;6.812;2022-11-30T16:26:28;6.70;99.90
56332;DHT22;42237;53.340;6.812;2022-11-30T16:28:53;6.60;99.90
56332;DHT22;42237;53.340;6.812;2022-11-30T16:31:20;6.60;99.90
56332;DHT22;42237;53.340;6.812;2022-11-30T16:33:48;6.70;99.90
56332;DHT22;42237;53.340;6.812;2022-11-30T16:36:18;6.90;99.90
56332;DHT22;42237;53.340;6.812;2022-11-30T16:38:49;6.60;99.90
56332;DHT22;42237;53.340;6.812;2022-11-30T16:41:21;6.60;99.90
56332;DHT22;42237;53.340;6.812;2022-11-30T16:43:48;6.60;99.90
56332;DHT22;42237;53.340;6.812;2022-11-30T16:46:17;6.60;99.90
56332;DHT22;42237;53.340;6.812;2022-11-30T16:48:43;6.60;99.90
56332;DHT22;42237;53.340;6.812;2022-11-30T16:53:39;6.60;99.90
56332;DHT22;42237;53.340;6.812;2022-11-30T16:56:11;6.60;99.90
56332;DHT22;42237;53.340;6.812;2022-11-30T16:58:37;6.60;99.90
56332;DHT22;42237;53.340;6.812;2022-11-30T17:01:04;6.70;99.90
56332;DHT22;42237;53.340;6.812;2022-11-30T17:03:32;6.60;99.90
56332;DHT22;42237;53.340;6.812;2022-11-30T17:06:00;6.60;99.90
56332;DHT22;42237;53.340;6.812;2022-11-30T17:08:25;6.60;99.90
56332;DHT22;42237;53.340;6.812;2022-11-30T17:10:52;6.60;99.90
56332;DHT22;42237;53.340;6.812;2022-11-30T17:13:19;6.60;99.90
56332;DHT22;42237;53.340;6.812;2022-11-30T17:15:45;6.60;99.90
56332;DHT22;42237;53.340;6.812;2022-11-30T17:18:11;6.60;99.90
56332;DHT22;42237;53.340;6.812;2022-11-30T17:20:37;6.60;99.90
56332;DHT22;42237;53.340;6.812;2022-11-30T17:23:04;6.60;99.90
56332;DHT22;42237;53.340;6.812;2022-11-30T17:25:30;6.80;99.90
56332;DHT22;42237;53.340;6.812;2022-11-30T17:27:56;6.60;99.90
56332;DHT22;42237;53.340;6.812;2022-11-30T17:30:21;6.60;99.90
56332;DHT22;42237;53.340;6.812;2022-11-30T17:32:48;6.60;99.90
56332;DHT22;42237;53.340;6.812;2022-11-30T17:35:16;6.80;99.90
56332;DHT22;42237;53.340;6.812;2022-11-30T17:37:42;6.50;99.90
56332;DHT22;42237;53.340;6.812;2022-11-30T17:40:09;6.50;99.90
56332;DHT22;42237;53.340;6.812;2022-11-30T17:42:38;6.50;99.90
56332;DHT22;42237;53.340;6.812;2022-11-30T17:45:04;6.60;99.90
56332;DHT22;42237;53.340;6.812;2022-11-30T17:47:30;6.50;99.90
56332;DHT22;42237;53.340;6.812;2022-11-30T17:49:56;6.60;99.90
56332;DHT22;42237;53.340;6.812;2022-11-30T17:52:22;6.60;99.90
56332;DHT22;42237;53.340;6.812;2022-11-30T17:54:47;6.50;99.90
56332;DHT22;42237;53.340;6.812;2022-11-30T17:57:13;6.60;99.90
56332;DHT22;42237;53.340;6.812;2022-11-30T17:59:39;6.50;99.90
56332;DHT22;42237;53.340;6.812;2022-11-30T18:02:04;6.50;99.90
56332;DHT22;42237;53.340;6.812;2022-11-30T18:04:30;6.60;99.90
56332;DHT22;42237;53.340;6.812;2022-11-30T18:06:56;6.60;99.90
56332;DHT22;42237;53.340;6.812;2022-11-30T18:09:22;6.50;99.90
56332;DHT22;42237;53.340;6.812;2022-11-30T18:11:48;6.60;99.90
56332;DHT22;42237;53.340;6.812;2022-11-30T18:14:14;6.60;99.90